This is the latest recevied weather packets stored in our database for station/object DB0OHA-13. If no packets are shown the sender has not sent any weather packets the latest 1 day(s).
| Time | Temp. | Humidity | Pressure | Rain* | Wind** | Luminosity | Snow |
|---|---|---|---|---|---|---|---|
| 1836274446 | 16.11° C | 6% | 1018.4 hPa | 0 mm | 2.68 m/s, 39° | 0 W/m² | - |
| 1836274296 | 16.11° C | 7% | 1018.4 hPa | 0 mm | 2.68 m/s, 37° | 0 W/m² | - |
| 1778009473 | 13.33° C | 1% | 1006.2 hPa | 0.51 mm | 0 m/s | 0 W/m² | - |
| 1778008872 | 13.33° C | 1% | 1006.2 hPa | 0.51 mm | 0 m/s | 0 W/m² | - |
| 1778008272 | 13.33° C | 1% | 1006.2 hPa | 0.51 mm | 0 m/s | 0 W/m² | - |
| 1778007672 | 13.33° C | 1% | 1006.1 hPa | 0.76 mm | 0 m/s | 0 W/m² | - |
| 1778007072 | 13.33° C | 1% | 1005.9 hPa | 0.51 mm | 0 m/s | 0 W/m² | - |
| 1778006472 | 13.33° C | 1% | 1006 hPa | 1.02 mm | 0 m/s | 0 W/m² | - |
| 1778005872 | 13.33° C | 1% | 1006 hPa | 0.76 mm | 0 m/s | 0 W/m² | - |
| 1778005272 | 13.33° C | 1% | 1006 hPa | 1.27 mm | 0 m/s | 2 W/m² | - |
| 1778004072 | 13.89° C | 1% | 1006 hPa | 1.27 mm | 0 m/s | 7 W/m² | - |
| 1778003472 | 13.89° C | 1% | 1005.9 hPa | 1.52 mm | 0.45 m/s, 28° | 10 W/m² | - |
| 1778002871 | 13.89° C | 1% | 1006 hPa | 1.52 mm | 0 m/s | 12 W/m² | - |
| 1778002271 | 13.89° C | 1% | 1005.9 hPa | 1.52 mm | 0.45 m/s, 5° | 16 W/m² | - |
| 1778001671 | 13.89° C | 1% | 1006 hPa | 1.27 mm | 0.45 m/s, 53° | 20 W/m² | - |
| 1778000471 | 14.44° C | 1% | 1006.3 hPa | 0.76 mm | 0.45 m/s, 53° | 26 W/m² | - |
| 1777999871 | 15° C | 1% | 1006.3 hPa | 0.51 mm | 0.89 m/s, 53° | 23 W/m² | - |
| 1777999271 | 15.56° C | 1% | 1006.4 hPa | 0 mm | 0 m/s | 24 W/m² | - |
| 1777998670 | 15.56° C | 1% | 1006.5 hPa | 0 mm | 0.45 m/s, 56° | 32 W/m² | - |
| 1777997470 | 16.11° C | 1% | 1006.6 hPa | 0 mm | 0.45 m/s, 52° | 50 W/m² | - |
| 1777996870 | 16.67° C | 1% | 1006.6 hPa | 0 mm | 0 m/s | 76 W/m² | - |
| 1777996270 | 16.67° C | 1% | 1006.5 hPa | 0 mm | 0.45 m/s, 40° | 133 W/m² | - |
| 1777995670 | 16.67° C | 1% | 1006.5 hPa | 0 mm | 0.89 m/s, 38° | 173 W/m² | - |
| 1777995070 | 16.67° C | 1% | 1006.8 hPa | 0 mm | 0.45 m/s, 36° | 180 W/m² | - |
| 1777994470 | 16.67° C | 1% | 1006.7 hPa | 0 mm | 1.79 m/s, 16° | 194 W/m² | - |
* Rain latest hour (hover to see other rain measurements)
** Current wind speed in m/s (hover to see current wind gust speed)